createdAt,value
2023-01-19T00:00:38.230Z,99870.38
2023-01-19T00:02:09.787Z,99866.06
2023-01-19T00:03:42.205Z,99869.50
2023-01-19T00:05:15.140Z,99871.25
2023-01-19T00:06:46.646Z,99872.97
2023-01-19T00:08:18.675Z,99866.88
2023-01-19T00:09:50.121Z,99869.47
2023-01-19T00:11:21.624Z,99876.34
2023-01-19T00:12:53.106Z,99878.09
2023-01-19T00:14:24.528Z,99881.53
2023-01-19T00:15:56.153Z,99878.97
2023-01-19T00:17:27.636Z,99876.34
2023-01-19T00:18:59.174Z,99871.19
2023-01-19T00:20:32.824Z,99875.53
2023-01-19T00:22:05.944Z,99878.16
2023-01-19T00:23:37.466Z,99875.53
2023-01-19T00:25:09.454Z,99874.69
2023-01-19T00:26:42.784Z,99875.59
2023-01-19T00:28:15.317Z,99870.38
2023-01-19T00:29:46.864Z,99870.34
2023-01-19T00:31:20.588Z,99872.97
2023-01-19T00:32:52.174Z,99871.28
2023-01-19T00:34:23.716Z,99872.16
2023-01-19T00:35:56.520Z,99874.72
2023-01-19T00:37:27.964Z,99875.59
2023-01-19T00:38:59.923Z,99884.28
2023-01-19T00:40:31.526Z,99882.53
2023-01-19T00:42:21.997Z,99880.03
2023-01-19T00:43:53.942Z,99890.44
2023-01-19T00:45:25.723Z,99881.81
2023-01-19T00:46:57.294Z,99897.38
2023-01-19T00:48:29.468Z,99887.03
2023-01-19T00:50:00.979Z,99894.81
2023-01-19T00:51:33.849Z,99893.09
2023-01-19T00:53:05.324Z,99893.94
2023-01-19T00:54:36.774Z,99900.84
2023-01-19T00:56:08.278Z,99892.22
2023-01-19T00:57:40.296Z,99892.19
2023-01-19T00:59:11.978Z,99893.09
2023-01-19T01:00:44.684Z,99889.66
2023-01-19T01:02:16.334Z,99885.31
2023-01-19T01:03:47.884Z,99883.59
2023-01-19T01:05:20.040Z,99893.16
2023-01-19T01:06:52.901Z,99882.75
2023-01-19T01:08:24.404Z,99887.97
2023-01-19T01:09:56.684Z,99891.41
2023-01-19T01:11:28.197Z,99884.50
2023-01-19T01:12:59.719Z,99878.44
2023-01-19T01:14:51.155Z,99886.22
2023-01-19T01:16:23.130Z,99894.88
2023-01-19T01:17:54.766Z,99884.47
2023-01-19T01:19:26.260Z,99876.69
2023-01-19T01:21:00.755Z,99890.53
2023-01-19T01:22:36.300Z,99883.56
2023-01-19T01:24:08.558Z,99889.63
2023-01-19T01:25:40.128Z,99875.75
2023-01-19T01:27:11.887Z,99884.28
2023-01-19T01:28:43.429Z,99891.13
2023-01-19T01:30:15.484Z,99887.63
2023-01-19T01:31:46.955Z,99880.69
2023-01-19T01:33:40.737Z,99889.28
2023-01-19T01:35:10.191Z,99895.28
2023-01-19T01:36:41.728Z,99901.25
2023-01-19T01:38:15.311Z,99890.03
2023-01-19T01:39:46.793Z,99890.84
2023-01-19T01:41:18.533Z,99888.31
2023-01-19T01:42:53.352Z,99882.22
2023-01-19T01:44:58.166Z,99890.84
2023-01-19T01:46:30.360Z,99895.22
2023-01-19T01:48:05.760Z,99885.66
2023-01-19T01:49:37.328Z,99889.97
2023-01-19T01:51:25.948Z,99882.22
2023-01-19T01:53:07.406Z,99884.78
2023-01-19T01:54:42.257Z,99883.06
2023-01-19T01:56:16.297Z,99886.53
2023-01-19T01:57:50.132Z,99888.31
2023-01-19T01:59:32.477Z,99895.28
2023-01-19T02:01:22.997Z,99885.72
2023-01-19T02:03:00.160Z,99894.34
2023-01-19T02:04:31.990Z,99896.13
2023-01-19T02:06:07.115Z,99892.75
2023-01-19T02:08:01.943Z,99896.19
2023-01-19T02:09:54.619Z,99899.66
2023-01-19T02:11:46.524Z,99897.06
2023-01-19T02:13:19.594Z,99899.72
2023-01-19T02:14:51.039Z,99893.63
2023-01-19T02:16:22.634Z,99904.84
2023-01-19T02:17:54.160Z,99897.06
2023-01-19T02:19:30.771Z,99897.91
2023-01-19T02:21:08.469Z,99897.06
2023-01-19T02:22:44.685Z,99888.44
2023-01-19T02:24:18.196Z,99878.09
2023-01-19T02:25:49.825Z,99893.69
2023-01-19T02:27:21.324Z,99889.31
2023-01-19T02:28:57.382Z,99890.19
2023-01-19T02:30:29.316Z,99896.25
2023-01-19T02:32:02.550Z,99894.50
2023-01-19T02:33:34.148Z,99892.81
2023-01-19T02:35:06.323Z,99893.69
2023-01-19T02:36:40.978Z,99885.06
2023-01-19T02:38:14.114Z,99892.88
2023-01-19T02:39:50.737Z,99888.53
2023-01-19T02:41:24.855Z,99885.91
2023-01-19T02:42:58.630Z,99891.09
2023-01-19T02:44:31.661Z,99883.31
2023-01-19T02:46:03.599Z,99891.09
2023-01-19T02:47:38.944Z,99894.53
2023-01-19T02:49:10.406Z,99885.06
2023-01-19T02:50:46.059Z,99879.81
2023-01-19T02:52:18.125Z,99882.38
2023-01-19T02:53:56.911Z,99884.94
2023-01-19T02:55:31.430Z,99884.09
2023-01-19T02:57:11.199Z,99882.38
2023-01-19T02:58:44.987Z,99874.56
2023-01-19T03:00:21.167Z,99879.78
2023-01-19T03:02:01.488Z,99875.47
2023-01-19T03:03:35.297Z,99880.72
2023-01-19T03:05:15.502Z,99881.59
2023-01-19T03:06:50.078Z,99885.91
2023-01-19T03:08:27.502Z,99881.59
2023-01-19T03:10:02.602Z,99877.22
2023-01-19T03:11:38.264Z,99886.72
2023-01-19T03:13:12.546Z,99891.03
2023-01-19T03:14:47.586Z,99879.78
2023-01-19T03:16:22.611Z,99898.78
2023-01-19T03:17:56.051Z,99886.59
2023-01-19T03:19:28.952Z,99888.34
2023-01-19T03:21:03.725Z,99888.31
2023-01-19T03:22:35.209Z,99883.97
2023-01-19T03:24:08.037Z,99891.75
2023-01-19T03:25:41.613Z,99897.78
2023-01-19T03:27:17.252Z,99895.16
2023-01-19T03:28:49.372Z,99882.13
2023-01-19T03:30:22.907Z,99894.19
2023-01-19T03:31:56.441Z,99885.47
2023-01-19T03:33:29.184Z,99871.59
2023-01-19T03:35:02.715Z,99876.78
2023-01-19T03:36:35.749Z,99872.41
2023-01-19T03:38:09.570Z,99886.25
2023-01-19T03:39:41.129Z,99881.03
2023-01-19T03:41:15.422Z,99887.09
2023-01-19T03:42:50.151Z,99890.47
2023-01-19T03:44:22.915Z,99888.69
2023-01-19T03:45:55.804Z,99893.81
2023-01-19T03:47:28.341Z,99894.59
2023-01-19T03:48:59.901Z,99894.59
2023-01-19T03:50:31.913Z,99889.34
2023-01-19T03:52:03.479Z,99904.88
2023-01-19T03:53:35.036Z,99900.44
2023-01-19T03:55:06.829Z,99909.94
2023-01-19T03:56:38.556Z,99907.28
2023-01-19T03:58:11.472Z,99903.78
2023-01-19T03:59:43.088Z,99907.13
2023-01-19T04:01:15.323Z,99896.72
2023-01-19T04:02:49.714Z,99902.84
2023-01-19T04:04:21.245Z,99901.19
2023-01-19T04:05:52.732Z,99905.53
2023-01-19T04:07:24.265Z,99911.59
2023-01-19T04:08:55.849Z,99894.31
2023-01-19T04:10:27.334Z,99902.13
2023-01-19T04:11:58.783Z,99894.34
2023-01-19T04:13:31.814Z,99897.88
2023-01-19T04:15:03.576Z,99896.16
2023-01-19T04:16:35.172Z,99897.81
2023-01-19T04:18:06.905Z,99902.13
2023-01-19T04:19:38.569Z,99898.69
2023-01-19T04:21:10.853Z,99903.91
2023-01-19T04:22:42.538Z,99904.75
2023-01-19T04:24:14.003Z,99901.25
2023-01-19T04:25:45.501Z,99904.69
2023-01-19T04:27:17.581Z,99902.91
2023-01-19T04:28:50.392Z,99902.91
2023-01-19T04:30:22.535Z,99907.25
2023-01-19T04:31:54.053Z,99897.75
2023-01-19T04:33:26.778Z,99901.19
2023-01-19T04:34:58.241Z,99906.41
2023-01-19T04:36:29.767Z,99902.91
2023-01-19T04:38:01.208Z,99905.50
2023-01-19T04:39:35.023Z,99904.63
2023-01-19T04:41:06.530Z,99896.81
2023-01-19T04:42:38.905Z,99901.06
2023-01-19T04:44:11.759Z,99906.25
2023-01-19T04:45:44.768Z,99907.13
2023-01-19T04:47:16.252Z,99909.72
2023-01-19T04:48:47.715Z,99902.75
2023-01-19T04:50:19.425Z,99898.38
2023-01-19T04:51:53.622Z,99904.41
2023-01-19T04:53:25.118Z,99909.69
2023-01-19T04:54:56.587Z,99900.19
2023-01-19T04:56:28.235Z,99892.50
2023-01-19T04:57:59.697Z,99907.25
2023-01-19T04:59:32.828Z,99900.44
2023-01-19T05:01:07.088Z,99903.06
2023-01-19T05:02:38.946Z,99910.97
2023-01-19T05:04:10.431Z,99910.13
2023-01-19T05:05:41.875Z,99914.53
2023-01-19T05:07:13.659Z,99905.88
2023-01-19T05:08:45.532Z,99911.13
2023-01-19T05:10:17.145Z,99911.22
2023-01-19T05:11:48.611Z,99918.22
2023-01-19T05:13:20.231Z,99923.38
2023-01-19T05:14:53.089Z,99919.06
2023-01-19T05:16:24.715Z,99920.84
2023-01-19T05:17:57.983Z,99920.00
2023-01-19T05:19:29.453Z,99918.28
2023-01-19T05:21:01.418Z,99913.13
2023-01-19T05:22:32.888Z,99916.66
2023-01-19T05:24:04.469Z,99921.06
2023-01-19T05:25:35.953Z,99910.75
2023-01-19T05:27:07.447Z,99923.72
2023-01-19T05:28:39.067Z,99922.91
2023-01-19T05:30:13.235Z,99927.25
2023-01-19T05:31:44.728Z,99920.38
2023-01-19T05:33:16.256Z,99920.44
2023-01-19T05:34:47.751Z,99924.84
2023-01-19T05:36:19.196Z,99920.47
2023-01-19T05:37:50.797Z,99923.94
2023-01-19T05:39:22.275Z,99921.22
2023-01-19T05:40:56.696Z,99928.06
2023-01-19T05:42:28.153Z,99928.03
2023-01-19T05:43:59.784Z,99920.25
2023-01-19T05:45:32.642Z,99921.94
2023-01-19T05:47:04.683Z,99920.22
2023-01-19T05:48:36.212Z,99926.31
2023-01-19T05:50:08.107Z,99922.06
2023-01-19T05:51:40.418Z,99931.63
2023-01-19T05:53:11.892Z,99934.34
2023-01-19T05:54:43.530Z,99938.53
2023-01-19T05:56:14.987Z,99935.16
2023-01-19T05:57:46.509Z,99940.34
2023-01-19T05:59:23.994Z,99943.63
2023-01-19T06:00:57.231Z,99934.03
2023-01-19T06:02:30.073Z,99941.00
2023-01-19T06:04:01.557Z,99949.63
2023-01-19T06:05:33.897Z,99940.13
2023-01-19T06:07:06.483Z,99952.19
2023-01-19T06:08:37.991Z,99947.75
2023-01-19T06:10:10.064Z,99947.72
2023-01-19T06:11:41.558Z,99951.94
2023-01-19T06:13:13.187Z,99951.06
2023-01-19T06:14:44.767Z,99956.94
2023-01-19T06:16:17.703Z,99950.81
2023-01-19T06:17:49.186Z,99960.28
2023-01-19T06:19:20.748Z,99959.47
2023-01-19T06:20:52.533Z,99969.75
2023-01-19T06:22:24.538Z,99968.78
2023-01-19T06:23:56.042Z,99954.81
2023-01-19T06:25:27.549Z,99959.00
2023-01-19T06:27:00.346Z,99943.34
2023-01-19T06:28:31.841Z,99945.13
2023-01-19T06:30:03.587Z,99945.28
2023-01-19T06:31:36.591Z,99940.28
2023-01-19T06:33:08.147Z,99943.78
2023-01-19T06:34:43.518Z,99944.75
2023-01-19T06:36:15.012Z,99953.47
2023-01-19T06:37:46.749Z,99949.16
2023-01-19T06:39:18.235Z,99941.44
2023-01-19T06:40:54.057Z,99954.38
2023-01-19T06:42:25.579Z,99955.28
2023-01-19T06:43:57.082Z,99971.69
2023-01-19T06:45:28.637Z,99965.66
2023-01-19T06:47:15.493Z,99979.47
2023-01-19T06:48:48.048Z,99975.03
2023-01-19T06:50:19.878Z,99970.59
2023-01-19T06:51:51.416Z,99981.75
2023-01-19T06:53:23.005Z,99976.56
2023-01-19T06:54:54.521Z,99984.44
2023-01-19T06:56:28.098Z,99975.78
2023-01-19T06:58:00.513Z,99984.44
2023-01-19T06:59:32.054Z,100005.25
2023-01-19T07:01:04.370Z,100004.38
2023-01-19T07:02:37.648Z,100013.88
2023-01-19T07:04:10.639Z,100004.28
2023-01-19T07:05:42.187Z,100004.25
2023-01-19T07:07:13.740Z,100006.81
2023-01-19T07:08:45.276Z,100017.13
2023-01-19T07:10:16.811Z,100011.06
2023-01-19T07:11:49.087Z,100021.56
2023-01-19T07:13:21.645Z,100019.09
2023-01-19T07:14:53.140Z,100026.81
2023-01-19T07:16:24.967Z,100019.84
2023-01-19T07:17:58.939Z,100026.66
2023-01-19T07:19:31.173Z,100025.72
2023-01-19T07:21:05.065Z,100023.94
2023-01-19T07:22:36.726Z,100022.22
2023-01-19T07:24:08.738Z,100024.75
2023-01-19T07:25:40.754Z,100025.66
2023-01-19T07:27:12.230Z,100039.53
2023-01-19T07:28:43.738Z,100025.50
2023-01-19T07:30:18.443Z,100039.28
2023-01-19T07:31:50.289Z,100031.38
2023-01-19T07:33:24.356Z,100035.69
2023-01-19T07:34:55.883Z,100030.59
2023-01-19T07:36:27.393Z,100039.25
2023-01-19T07:37:58.906Z,100023.63
2023-01-19T07:39:31.931Z,100035.69
2023-01-19T07:41:04.430Z,100038.22
2023-01-19T07:42:36.142Z,100043.34
2023-01-19T07:44:08.699Z,100045.09
2023-01-19T07:45:40.327Z,100043.41
2023-01-19T07:47:12.677Z,100046.06
2023-01-19T07:48:47.321Z,100047.84
2023-01-19T07:50:21.340Z,100045.28
2023-01-19T07:51:52.940Z,100045.28
2023-01-19T07:53:24.481Z,100052.28
2023-01-19T07:54:55.945Z,100067.88
2023-01-19T07:56:29.927Z,100066.09
2023-01-19T07:58:05.060Z,100074.72
2023-01-19T07:59:36.630Z,100074.56
2023-01-19T08:01:08.754Z,100073.63
2023-01-19T08:02:41.134Z,100080.53
2023-01-19T08:04:14.035Z,100083.94
2023-01-19T08:05:49.677Z,100094.19
2023-01-19T08:07:21.298Z,100095.00
2023-01-19T08:08:53.174Z,100100.94
2023-01-19T08:10:28.316Z,100111.22
2023-01-19T08:11:59.842Z,100102.56
2023-01-19T08:13:31.337Z,100106.81
2023-01-19T08:15:03.362Z,100092.94
2023-01-19T08:16:34.929Z,100102.66
2023-01-19T08:18:06.830Z,100111.34
2023-01-19T08:19:41.585Z,100102.66
2023-01-19T08:21:13.191Z,100113.03
2023-01-19T08:22:47.099Z,100107.78
2023-01-19T08:24:21.205Z,100104.44
2023-01-19T08:25:52.738Z,100110.41
2023-01-19T08:27:24.362Z,100106.06
2023-01-19T08:28:56.486Z,100110.47
2023-01-19T08:30:28.066Z,100109.66
2023-01-19T08:32:02.145Z,100113.16
2023-01-19T08:33:33.746Z,100112.25
2023-01-19T08:35:07.486Z,100121.88
2023-01-19T08:36:39.139Z,100122.69
2023-01-19T08:38:10.902Z,100124.41
2023-01-19T08:39:42.455Z,100122.50
2023-01-19T08:41:16.397Z,100124.19
2023-01-19T08:42:47.898Z,100114.56
2023-01-19T08:44:19.487Z,100129.31
2023-01-19T08:45:51.947Z,100131.00
2023-01-19T08:47:23.445Z,100132.78
2023-01-19T08:48:55.013Z,100131.78
2023-01-19T08:50:28.586Z,100136.13
2023-01-19T08:52:00.034Z,100136.84
2023-01-19T08:53:31.556Z,100140.28
2023-01-19T08:55:03.073Z,100142.03
2023-01-19T08:56:34.589Z,100154.09
2023-01-19T08:58:06.653Z,100138.28
2023-01-19T08:59:38.172Z,100143.31
2023-01-19T09:01:10.277Z,100147.53
2023-01-19T09:02:42.418Z,100149.13
2023-01-19T09:04:13.938Z,100149.91
2023-01-19T09:05:46.850Z,100154.09
2023-01-19T09:07:18.752Z,100158.50
2023-01-19T09:08:50.262Z,100156.75
2023-01-19T09:10:21.784Z,100159.19
2023-01-19T09:11:53.734Z,100154.88
2023-01-19T09:13:25.310Z,100162.69
2023-01-19T09:14:56.841Z,100159.22
2023-01-19T09:16:29.303Z,100159.19
2023-01-19T09:18:01.742Z,100156.56
2023-01-19T09:19:35.016Z,100161.91
2023-01-19T09:21:09.283Z,100166.28
2023-01-19T09:22:41.507Z,100167.13
2023-01-19T09:24:13.010Z,100163.47
2023-01-19T09:25:45.272Z,100164.31
2023-01-19T09:27:16.825Z,100163.38
2023-01-19T09:28:48.349Z,100170.34
2023-01-19T09:30:20.153Z,100177.34
2023-01-19T09:31:51.707Z,100175.56
2023-01-19T09:33:23.327Z,100170.22
2023-01-19T09:34:56.435Z,100181.31
2023-01-19T09:36:37.890Z,100178.56
2023-01-19T09:38:10.256Z,100178.47
2023-01-19T09:39:41.919Z,100178.50
2023-01-19T09:41:18.201Z,100186.28
2023-01-19T09:42:53.369Z,100181.09
2023-01-19T09:44:28.621Z,100185.44
2023-01-19T09:46:01.177Z,100191.66
2023-01-19T09:47:34.451Z,100194.28
2023-01-19T09:49:11.131Z,100189.13
2023-01-19T09:50:48.323Z,100199.41
2023-01-19T09:52:22.387Z,100196.00
2023-01-19T09:53:59.990Z,100202.78
2023-01-19T09:55:31.585Z,100202.78
2023-01-19T09:57:04.206Z,100208.94
2023-01-19T09:58:35.702Z,100209.06
2023-01-19T10:00:16.462Z,100209.06
2023-01-19T10:01:59.415Z,100216.19
2023-01-19T10:03:32.338Z,100211.84
2023-01-19T10:05:04.902Z,100213.47
2023-01-19T10:06:36.588Z,100222.09
2023-01-19T10:08:16.512Z,100221.09
2023-01-19T10:09:54.895Z,100226.31
2023-01-19T10:11:38.101Z,100224.75
2023-01-19T10:13:25.000Z,100226.78
2023-01-19T10:15:01.628Z,100232.16
2023-01-19T10:16:37.661Z,100243.59
2023-01-19T10:18:18.877Z,100236.69
2023-01-19T10:19:53.602Z,100236.78
2023-01-19T10:21:27.187Z,100233.34
2023-01-19T10:23:00.546Z,100240.97
2023-01-19T10:24:38.491Z,100243.59
2023-01-19T10:26:13.467Z,100241.06
2023-01-19T10:27:46.292Z,100238.19
2023-01-19T10:29:21.836Z,100230.31
2023-01-19T10:30:54.463Z,100242.47
2023-01-19T10:32:27.395Z,100245.00
2023-01-19T10:34:00.216Z,100242.47
2023-01-19T10:35:32.063Z,100252.13
2023-01-19T10:37:05.269Z,100255.63
2023-01-19T10:38:36.821Z,100255.59
2023-01-19T10:40:19.953Z,100254.75
2023-01-19T10:41:52.311Z,100261.84
2023-01-19T10:43:41.492Z,100258.47
2023-01-19T10:45:15.528Z,100259.53
2023-01-19T10:46:47.986Z,100261.31
2023-01-19T10:48:19.631Z,100257.78
2023-01-19T10:49:52.113Z,100262.78
2023-01-19T10:51:23.739Z,100260.09
2023-01-19T10:52:56.108Z,100252.78
2023-01-19T10:54:29.285Z,100244.59
2023-01-19T10:56:14.342Z,100248.78
2023-01-19T10:57:49.217Z,100247.59
2023-01-19T10:59:31.388Z,100246.75
2023-01-19T11:01:13.335Z,100248.44
2023-01-19T11:02:50.088Z,100248.31
2023-01-19T11:04:22.620Z,100248.22
2023-01-19T11:05:54.110Z,100243.84
2023-01-19T11:07:28.604Z,100240.34
2023-01-19T11:09:18.112Z,100244.69
2023-01-19T11:10:52.644Z,100246.56
2023-01-19T11:12:25.566Z,100252.84
2023-01-19T11:14:08.726Z,100239.88
2023-01-19T11:15:42.368Z,100242.41
2023-01-19T11:17:18.029Z,100247.69
2023-01-19T11:18:51.998Z,100256.28
2023-01-19T11:20:24.678Z,100256.81
2023-01-19T11:22:08.795Z,100251.25
2023-01-19T11:23:44.190Z,100253.31
2023-01-19T11:25:27.322Z,100255.53
2023-01-19T11:27:02.975Z,100249.00
2023-01-19T11:28:37.575Z,100256.56
2023-01-19T11:30:17.509Z,100245.03
2023-01-19T11:31:50.097Z,100253.66
2023-01-19T11:33:25.602Z,100248.47
2023-01-19T11:34:57.905Z,100257.22
2023-01-19T11:36:30.820Z,100248.53
2023-01-19T11:38:05.906Z,100249.41
2023-01-19T11:41:34.490Z,100245.91
2023-01-19T11:43:06.059Z,100243.28
2023-01-19T11:44:43.014Z,100252.91
2023-01-19T11:46:15.238Z,100255.41
2023-01-19T11:47:52.493Z,100254.44
2023-01-19T11:49:28.579Z,100253.59
2023-01-19T11:51:02.616Z,100254.53
2023-01-19T11:52:43.150Z,100256.25
2023-01-19T11:54:20.988Z,100251.91
2023-01-19T11:55:54.803Z,100255.44
2023-01-19T11:57:27.260Z,100251.78
2023-01-19T11:58:58.781Z,100244.81
2023-01-19T12:00:37.564Z,100250.75
2023-01-19T12:02:16.231Z,100248.81
2023-01-19T12:03:53.859Z,100241.50
2023-01-19T12:05:29.871Z,100253.38
2023-01-19T12:07:08.794Z,100248.25
2023-01-19T12:08:43.335Z,100248.19
2023-01-19T12:10:23.851Z,100252.41
2023-01-19T12:11:57.811Z,100249.13
2023-01-19T12:13:30.516Z,100250.91
2023-01-19T12:15:06.821Z,100244.78
2023-01-19T12:16:49.707Z,100251.63
2023-01-19T12:18:27.552Z,100254.84
2023-01-19T12:20:10.770Z,100252.94
2023-01-19T12:21:42.424Z,100252.19
2023-01-19T12:23:25.963Z,100248.41
2023-01-19T12:25:01.435Z,100249.47
2023-01-19T12:26:36.427Z,100245.31
2023-01-19T12:28:09.923Z,100245.50
2023-01-19T12:29:46.298Z,100244.72
2023-01-19T12:31:19.285Z,100250.84
2023-01-19T12:32:52.595Z,100243.38
2023-01-19T12:34:36.756Z,100239.41
2023-01-19T12:36:10.983Z,100253.06
2023-01-19T12:37:43.426Z,100250.97
2023-01-19T12:39:17.110Z,100248.78
2023-01-19T12:40:48.647Z,100252.94
2023-01-19T12:42:22.895Z,100255.53
2023-01-19T12:44:19.177Z,100254.00
2023-01-19T12:45:50.668Z,100254.81
2023-01-19T12:47:26.711Z,100258.28
2023-01-19T12:49:06.380Z,100253.13
2023-01-19T12:50:38.403Z,100253.22
2023-01-19T12:52:11.854Z,100256.06
2023-01-19T12:53:50.242Z,100257.97
2023-01-19T12:55:23.353Z,100261.63
2023-01-19T12:56:58.168Z,100258.25
2023-01-19T12:58:29.791Z,100257.50
2023-01-19T13:00:04.768Z,100259.25
2023-01-19T13:01:36.525Z,100254.84
2023-01-19T13:03:30.715Z,100256.41
2023-01-19T13:05:21.352Z,100249.16
2023-01-19T13:07:22.679Z,100254.19
2023-01-19T13:09:01.633Z,100260.22
2023-01-19T13:10:57.120Z,100254.19
2023-01-19T13:12:36.412Z,100261.31
2023-01-19T13:14:26.224Z,100255.16
2023-01-19T13:16:01.358Z,100263.00
2023-01-19T13:17:35.958Z,100262.94
2023-01-19T13:19:15.364Z,100267.22
2023-01-19T13:20:50.985Z,100265.19
2023-01-19T13:22:41.255Z,100268.41
2023-01-19T13:24:17.383Z,100266.31
2023-01-19T13:25:53.437Z,100264.47
2023-01-19T13:27:28.490Z,100257.63
2023-01-19T13:29:05.650Z,100269.06
2023-01-19T13:30:39.851Z,100271.22
2023-01-19T13:32:13.559Z,100259.50
2023-01-19T13:33:47.972Z,100268.31
2023-01-19T13:35:20.667Z,100262.78
2023-01-19T13:36:54.955Z,100268.41
2023-01-19T13:38:27.830Z,100266.72
2023-01-19T13:40:00.000Z,100259.97
2023-01-19T13:41:35.481Z,100276.19
2023-01-19T13:43:14.016Z,100270.72
2023-01-19T13:44:52.276Z,100267.94
2023-01-19T13:46:26.324Z,100267.84
2023-01-19T13:47:59.512Z,100263.38
2023-01-19T13:49:33.418Z,100267.81
2023-01-19T13:51:05.939Z,100269.81
2023-01-19T13:52:43.216Z,100272.03
2023-01-19T13:54:15.426Z,100277.59
2023-01-19T13:55:48.138Z,100283.97
2023-01-19T13:57:24.260Z,100284.94
2023-01-19T13:59:05.443Z,100292.81
2023-01-19T14:00:38.462Z,100293.09
2023-01-19T14:02:13.853Z,100294.13
2023-01-19T14:03:52.120Z,100291.88
2023-01-19T14:05:25.597Z,100287.06
2023-01-19T14:06:59.088Z,100293.50
2023-01-19T14:08:33.780Z,100287.56
2023-01-19T14:10:08.235Z,100292.09
2023-01-19T14:11:40.178Z,100293.84
2023-01-19T14:13:13.693Z,100288.56
2023-01-19T14:14:49.579Z,100299.06
2023-01-19T14:16:21.281Z,100307.81
2023-01-19T14:18:07.910Z,100296.63
2023-01-19T14:19:48.992Z,100306.28
2023-01-19T14:21:20.501Z,100311.56
2023-01-19T14:22:52.224Z,100315.22
2023-01-19T14:24:29.557Z,100309.53
2023-01-19T14:26:01.233Z,100308.25
2023-01-19T14:27:32.901Z,100312.88
2023-01-19T14:29:07.575Z,100317.31
2023-01-19T14:30:39.328Z,100315.66
2023-01-19T14:32:15.407Z,100306.06
2023-01-19T14:33:48.057Z,100314.00
2023-01-19T14:35:24.454Z,100307.06
2023-01-19T14:36:56.013Z,100319.19
2023-01-19T14:38:27.593Z,100316.63
2023-01-19T14:40:01.643Z,100310.59
2023-01-19T14:41:36.644Z,100316.78
2023-01-19T14:43:13.135Z,100315.88
2023-01-19T14:44:48.042Z,100314.22
2023-01-19T14:46:20.979Z,100321.19
2023-01-19T14:47:54.684Z,100319.53
2023-01-19T14:49:31.435Z,100318.56
2023-01-19T14:51:04.339Z,100319.31
2023-01-19T14:54:15.916Z,100317.41
2023-01-19T14:55:49.886Z,100320.88
2023-01-19T14:57:21.375Z,100327.91
2023-01-19T14:58:53.168Z,100321.09
2023-01-19T15:00:24.876Z,100326.19
2023-01-19T15:01:56.765Z,100328.72
2023-01-19T15:03:44.727Z,100332.94
2023-01-19T15:05:17.381Z,100328.59
2023-01-19T15:06:48.924Z,100333.66
2023-01-19T15:08:24.015Z,100335.47
2023-01-19T15:09:55.515Z,100334.81
2023-01-19T15:11:31.013Z,100331.81
2023-01-19T15:13:02.702Z,100340.81
2023-01-19T15:16:06.719Z,100338.78
2023-01-19T15:17:38.304Z,100329.31
2023-01-19T15:19:11.533Z,100343.44
2023-01-19T15:20:43.223Z,100338.25
2023-01-19T15:22:14.779Z,100339.16
2023-01-19T15:23:47.449Z,100333.06
2023-01-19T15:25:20.348Z,100334.81
2023-01-19T15:26:53.181Z,100336.66
2023-01-19T15:28:24.779Z,100348.91
2023-01-19T15:29:56.589Z,100344.63
2023-01-19T15:31:28.280Z,100351.56
2023-01-19T15:32:59.899Z,100350.72
2023-01-19T15:34:31.628Z,100350.84
2023-01-19T15:36:03.279Z,100343.84
2023-01-19T15:37:34.767Z,100349.03
2023-01-19T15:39:06.258Z,100347.25
2023-01-19T15:40:37.887Z,100354.25
2023-01-19T15:42:13.007Z,100357.84
2023-01-19T15:43:44.630Z,100354.28
2023-01-19T15:45:31.016Z,100355.19
2023-01-19T15:47:02.596Z,100352.56
2023-01-19T15:48:34.206Z,100351.59
2023-01-19T15:50:06.346Z,100359.25
2023-01-19T15:51:38.160Z,100357.41
2023-01-19T15:53:13.362Z,100362.56
2023-01-19T15:54:44.869Z,100353.75
2023-01-19T15:56:17.246Z,100357.19
2023-01-19T15:57:50.135Z,100358.97
2023-01-19T15:59:23.699Z,100365.88
2023-01-19T16:00:56.500Z,100367.72
2023-01-19T16:02:28.084Z,100363.44
2023-01-19T16:04:01.392Z,100369.47
2023-01-19T16:05:42.634Z,100373.75
2023-01-19T16:07:14.964Z,100373.00
2023-01-19T16:08:46.515Z,100369.53
2023-01-19T16:10:18.198Z,100368.69
2023-01-19T16:11:49.689Z,100370.41
2023-01-19T16:13:22.658Z,100364.34
2023-01-19T16:14:54.200Z,100372.13
2023-01-19T16:16:27.998Z,100370.38
2023-01-19T16:17:59.660Z,100371.25
2023-01-19T16:19:34.391Z,100377.34
2023-01-19T16:21:06.103Z,100378.22
2023-01-19T16:22:38.834Z,100371.28
2023-01-19T16:24:10.397Z,100380.88
2023-01-19T16:25:41.978Z,100374.78
2023-01-19T16:27:13.513Z,100376.47
2023-01-19T16:28:46.644Z,100382.50
2023-01-19T16:30:19.435Z,100383.34
2023-01-19T16:31:51.048Z,100378.19
2023-01-19T16:33:22.975Z,100388.63
2023-01-19T16:34:54.621Z,100386.91
2023-01-19T16:36:26.926Z,100382.69
2023-01-19T16:37:58.479Z,100387.97
2023-01-19T16:39:30.050Z,100397.59
2023-01-19T16:41:01.619Z,100394.25
2023-01-19T16:42:33.476Z,100396.97
2023-01-19T16:44:06.996Z,100396.13
2023-01-19T16:45:55.103Z,100397.81
2023-01-19T16:47:26.731Z,100402.00
2023-01-19T16:48:59.569Z,100396.69
2023-01-19T16:50:31.146Z,100405.25
2023-01-19T16:52:05.531Z,100405.31
2023-01-19T16:53:37.215Z,100405.41
2023-01-19T16:55:11.086Z,100402.91
2023-01-19T16:56:42.651Z,100402.19
2023-01-19T16:58:14.237Z,100409.16
2023-01-19T16:59:47.149Z,100406.63
2023-01-19T17:01:20.339Z,100405.75
2023-01-19T17:02:52.090Z,100410.94
2023-01-19T17:04:23.953Z,100406.56
2023-01-19T17:05:55.444Z,100412.63
2023-01-19T17:07:27.435Z,100419.47
2023-01-19T17:08:59.320Z,100410.75
2023-01-19T17:10:30.809Z,100421.13
2023-01-19T17:12:02.340Z,100417.66
2023-01-19T17:13:33.863Z,100416.78
2023-01-19T17:15:07.573Z,100413.38
2023-01-19T17:16:39.163Z,100413.44
2023-01-19T17:18:13.254Z,100416.91
2023-01-19T17:19:45.154Z,100417.78
2023-01-19T17:21:20.036Z,100422.16
2023-01-19T17:22:51.613Z,100415.31
2023-01-19T17:24:23.215Z,100420.56
2023-01-19T17:25:55.227Z,100419.75
2023-01-19T17:27:26.739Z,100413.72
2023-01-19T17:28:58.498Z,100419.84
2023-01-19T17:30:31.454Z,100424.28
2023-01-19T17:32:03.115Z,100418.31
2023-01-19T17:33:37.041Z,100423.56
2023-01-19T17:35:08.971Z,100425.34
2023-01-19T17:36:41.022Z,100427.09
2023-01-19T17:38:12.646Z,100437.53
2023-01-19T17:39:44.115Z,100427.09
2023-01-19T17:41:16.644Z,100434.94
2023-01-19T17:42:48.138Z,100433.16
2023-01-19T17:44:19.737Z,100439.22
2023-01-19T17:45:52.560Z,100444.44
2023-01-19T17:47:25.852Z,100441.81
2023-01-19T17:48:58.095Z,100440.97
2023-01-19T17:50:29.648Z,100444.44
2023-01-19T17:52:01.193Z,100438.38
2023-01-19T17:53:32.739Z,100445.31
2023-01-19T17:55:04.542Z,100441.88
2023-01-19T17:56:38.451Z,100443.72
2023-01-19T17:58:09.936Z,100442.03
2023-01-19T17:59:43.770Z,100449.03
2023-01-19T18:01:17.504Z,100442.13
2023-01-19T18:02:50.536Z,100446.47
2023-01-19T18:04:22.160Z,100442.97
2023-01-19T18:05:54.037Z,100444.72
2023-01-19T18:07:25.545Z,100443.81